createdAt,value
2022-12-09T00:01:09.124Z,56.60
2022-12-09T00:03:36.951Z,51.13
2022-12-09T00:06:20.776Z,56.13
2022-12-09T00:08:49.467Z,54.33
2022-12-09T00:11:18.187Z,57.35
2022-12-09T00:13:49.703Z,62.70
2022-12-09T00:16:18.141Z,58.45
2022-12-09T00:18:46.350Z,59.72
2022-12-09T00:21:18.470Z,61.70
2022-12-09T00:23:47.347Z,60.55
2022-12-09T00:26:15.917Z,59.47
2022-12-09T00:28:44.242Z,57.00
2022-12-09T00:31:17.091Z,68.25
2022-12-09T00:33:46.545Z,59.85
2022-12-09T00:36:17.550Z,65.45
2022-12-09T00:38:45.987Z,65.03
2022-12-09T00:41:14.679Z,62.67
2022-12-09T00:43:42.908Z,62.72
2022-12-09T00:46:12.619Z,58.22
2022-12-09T00:48:41.293Z,65.00
2022-12-09T00:51:13.087Z,52.70
2022-12-09T00:53:40.695Z,59.15
2022-12-09T00:56:08.427Z,60.42
2022-12-09T00:58:36.792Z,67.40
2022-12-09T01:01:05.880Z,66.60
2022-12-09T01:03:34.202Z,68.47
2022-12-09T01:06:08.269Z,67.05
2022-12-09T01:08:38.908Z,66.10
2022-12-09T01:11:21.024Z,64.53
2022-12-09T01:13:49.977Z,67.00
2022-12-09T01:16:26.676Z,64.72
2022-12-09T01:18:57.427Z,70.30
2022-12-09T01:21:25.920Z,105.70
2022-12-09T01:23:53.613Z,86.75
2022-12-09T01:26:23.197Z,103.85
2022-12-09T01:28:52.917Z,87.93
2022-12-09T01:31:24.103Z,96.03
2022-12-09T01:33:54.089Z,74.07
2022-12-09T01:36:29.767Z,75.60
2022-12-09T01:38:59.534Z,81.93
2022-12-09T01:41:28.650Z,101.32
2022-12-09T01:44:09.317Z,83.85
2022-12-09T01:46:36.971Z,77.95
2022-12-09T01:49:07.447Z,79.65
2022-12-09T01:51:36.678Z,76.10
2022-12-09T01:54:04.437Z,64.57
2022-12-09T01:56:37.288Z,70.10
2022-12-09T01:59:11.721Z,67.47
2022-12-09T02:01:41.649Z,76.72
2022-12-09T02:04:09.366Z,68.40
2022-12-09T02:06:39.178Z,68.88
2022-12-09T02:09:09.585Z,70.80
2022-12-09T02:12:10.043Z,69.75
2022-12-09T02:14:50.422Z,66.78
2022-12-09T02:17:20.767Z,62.63
2022-12-09T02:20:19.283Z,61.65
2022-12-09T02:23:13.528Z,57.20
2022-12-09T02:25:48.140Z,57.35
2022-12-09T02:28:22.307Z,61.13
2022-12-09T02:31:04.523Z,58.20
2022-12-09T02:33:45.221Z,64.15
2022-12-09T02:36:21.103Z,59.13
2022-12-09T02:41:29.259Z,65.88
2022-12-09T02:44:03.307Z,64.93
2022-12-09T02:46:36.212Z,72.47
2022-12-09T02:49:09.498Z,65.43
2022-12-09T02:51:42.407Z,65.93
2022-12-09T02:54:18.797Z,69.57
2022-12-09T02:56:56.996Z,70.80
2022-12-09T02:59:26.491Z,72.43
2022-12-09T03:01:56.909Z,59.78
2022-12-09T03:04:27.387Z,60.95
2022-12-09T03:07:00.498Z,63.38
2022-12-09T03:09:34.947Z,62.25
2022-12-09T03:12:09.183Z,64.80
2022-12-09T03:14:46.138Z,59.22
2022-12-09T03:17:14.957Z,64.95
2022-12-09T03:19:45.312Z,73.85
2022-12-09T03:22:17.322Z,67.53
2022-12-09T03:24:52.570Z,71.78
2022-12-09T03:27:28.536Z,62.70
2022-12-09T03:29:58.793Z,66.10
2022-12-09T03:32:29.004Z,63.95
2022-12-09T03:35:04.850Z,74.30
2022-12-09T03:37:35.131Z,74.30
2022-12-09T03:40:09.903Z,72.93
2022-12-09T03:42:51.331Z,72.32
2022-12-09T03:45:20.845Z,73.70
2022-12-09T03:47:48.392Z,85.55
2022-12-09T03:50:16.471Z,77.57
2022-12-09T03:52:56.505Z,82.45
2022-12-09T03:55:36.178Z,79.88
2022-12-09T03:58:07.173Z,107.00
2022-12-09T04:00:38.532Z,98.00
2022-12-09T04:03:07.894Z,84.45
2022-12-09T04:05:35.743Z,102.60
2022-12-09T04:08:03.772Z,102.43
2022-12-09T04:10:31.345Z,87.47
2022-12-09T04:12:58.954Z,97.47
2022-12-09T04:15:26.438Z,86.25
2022-12-09T04:17:54.114Z,88.55
2022-12-09T04:20:21.995Z,100.93
2022-12-09T04:22:49.565Z,96.80
2022-12-09T04:25:17.555Z,85.05
2022-12-09T04:27:45.089Z,96.85
2022-12-09T04:30:13.581Z,124.20
2022-12-09T04:32:41.444Z,97.10
2022-12-09T04:35:09.425Z,91.35
2022-12-09T04:37:37.522Z,91.63
2022-12-09T04:40:06.928Z,95.03
2022-12-09T04:42:35.343Z,90.05
2022-12-09T04:45:03.091Z,100.85
2022-12-09T04:47:32.291Z,111.78
2022-12-09T04:50:00.595Z,99.72
2022-12-09T04:52:28.404Z,103.72
2022-12-09T04:54:55.823Z,98.95
2022-12-09T04:57:24.143Z,102.53
2022-12-09T04:59:51.724Z,101.75
2022-12-09T05:02:19.295Z,101.15
2022-12-09T05:04:47.728Z,99.25
2022-12-09T05:07:15.605Z,92.03
2022-12-09T05:09:43.831Z,152.07
2022-12-09T05:12:11.482Z,143.02
2022-12-09T05:14:38.985Z,154.18
2022-12-09T05:17:07.488Z,152.45
2022-12-09T05:19:35.119Z,130.27
2022-12-09T05:22:02.902Z,134.40
2022-12-09T05:24:31.844Z,186.15
2022-12-09T05:26:59.398Z,118.28
2022-12-09T05:29:27.168Z,114.95
2022-12-09T05:31:55.321Z,113.82
2022-12-09T05:34:22.964Z,106.38
2022-12-09T05:36:52.386Z,97.55
2022-12-09T05:39:20.397Z,105.57
2022-12-09T05:41:48.512Z,112.47
2022-12-09T05:44:16.465Z,108.47
2022-12-09T05:46:44.073Z,107.20
2022-12-09T05:49:11.929Z,113.63
2022-12-09T05:51:39.749Z,136.52
2022-12-09T05:54:07.342Z,118.50
2022-12-09T05:56:35.445Z,117.43
2022-12-09T05:59:03.387Z,112.20
2022-12-09T06:01:31.376Z,127.32
2022-12-09T06:03:59.038Z,122.07
2022-12-09T06:06:30.245Z,128.68
2022-12-09T06:09:00.577Z,142.35
2022-12-09T06:11:29.064Z,116.28
2022-12-09T06:13:57.066Z,125.65
2022-12-09T06:16:26.075Z,153.85
2022-12-09T06:18:54.349Z,128.18
2022-12-09T06:21:22.784Z,125.50
2022-12-09T06:23:51.566Z,126.88
2022-12-09T06:26:25.638Z,114.00
2022-12-09T06:28:54.995Z,113.93
2022-12-09T06:31:23.993Z,113.13
2022-12-09T06:33:55.986Z,118.50
2022-12-09T06:36:26.283Z,124.85
2022-12-09T06:38:54.734Z,122.50
2022-12-09T06:41:22.585Z,124.80
2022-12-09T06:43:50.788Z,129.85
2022-12-09T06:46:26.211Z,124.22
2022-12-09T06:48:55.744Z,116.20
2022-12-09T06:51:25.128Z,135.73
2022-12-09T06:53:54.453Z,159.10
2022-12-09T06:56:22.486Z,216.02
2022-12-09T06:58:50.624Z,114.65
2022-12-09T07:01:23.869Z,100.03
2022-12-09T07:03:54.710Z,113.30
2022-12-09T07:06:32.013Z,113.82
2022-12-09T07:09:04.673Z,155.75
2022-12-09T07:11:32.837Z,136.27
2022-12-09T07:14:01.344Z,102.80
2022-12-09T07:16:29.461Z,100.65
2022-12-09T07:18:57.504Z,92.97
2022-12-09T07:21:25.182Z,76.90
2022-12-09T07:23:53.320Z,84.88
2022-12-09T07:26:22.173Z,79.97
2022-12-09T07:28:51.145Z,74.00
2022-12-09T07:31:29.467Z,66.82
2022-12-09T07:33:58.960Z,66.30
2022-12-09T07:36:29.577Z,70.70
2022-12-09T07:39:00.268Z,69.82
2022-12-09T07:41:29.006Z,61.53
2022-12-09T07:43:57.326Z,118.03
2022-12-09T07:46:28.856Z,73.40
2022-12-09T07:48:58.382Z,73.22
2022-12-09T07:51:26.700Z,75.35
2022-12-09T07:53:54.900Z,65.72
2022-12-09T07:56:23.474Z,56.03
2022-12-09T07:58:54.069Z,79.20
2022-12-09T08:01:26.073Z,92.45
2022-12-09T08:03:54.783Z,108.65
2022-12-09T08:06:26.922Z,78.43
2022-12-09T08:08:58.777Z,108.95
2022-12-09T08:11:29.366Z,72.65
2022-12-09T08:14:07.230Z,98.53
2022-12-09T08:16:39.168Z,89.15
2022-12-09T08:19:07.154Z,134.43
2022-12-09T08:21:35.158Z,111.15
2022-12-09T08:24:05.949Z,115.95
2022-12-09T08:26:35.220Z,95.78
2022-12-09T08:29:08.249Z,60.30
2022-12-09T08:31:41.035Z,91.38
2022-12-09T08:34:09.968Z,60.83
2022-12-09T08:36:37.887Z,55.88
2022-12-09T08:39:06.935Z,36.83
2022-12-09T08:41:37.839Z,39.33
2022-12-09T08:44:12.177Z,38.58
2022-12-09T08:46:42.879Z,34.63
2022-12-09T08:49:11.741Z,32.15
2022-12-09T08:51:39.839Z,45.92
2022-12-09T08:54:07.786Z,36.05
2022-12-09T08:56:35.995Z,64.85
2022-12-09T08:59:04.039Z,67.53
2022-12-09T09:01:34.695Z,38.78
2022-12-09T09:04:06.464Z,35.13
2022-12-09T09:06:35.256Z,31.77
2022-12-09T09:09:05.157Z,35.35
2022-12-09T09:11:34.338Z,43.60
2022-12-09T09:14:04.940Z,37.17
2022-12-09T09:16:33.807Z,39.35
2022-12-09T09:19:03.854Z,37.08
2022-12-09T09:21:32.506Z,41.00
2022-12-09T09:24:00.668Z,51.78
2022-12-09T09:26:28.861Z,56.75
2022-12-09T09:28:57.201Z,32.65
2022-12-09T09:31:26.014Z,68.63
2022-12-09T09:33:54.017Z,39.10
2022-12-09T09:36:24.740Z,42.50
2022-12-09T09:38:55.208Z,41.10
2022-12-09T09:41:42.695Z,72.57
2022-12-09T09:44:16.101Z,45.33
2022-12-09T09:46:46.383Z,44.78
2022-12-09T09:49:43.807Z,37.95
2022-12-09T09:52:18.356Z,39.08
2022-12-09T09:54:47.227Z,36.80
2022-12-09T09:57:17.377Z,39.65
2022-12-09T09:59:49.361Z,47.55
2022-12-09T10:02:37.812Z,34.47
2022-12-09T10:05:29.412Z,66.47
2022-12-09T10:08:21.961Z,56.13
2022-12-09T10:11:02.052Z,121.90
2022-12-09T10:13:43.122Z,63.65
2022-12-09T10:16:17.959Z,51.03
2022-12-09T10:19:09.194Z,75.18
2022-12-09T10:21:42.480Z,55.80
2022-12-09T10:24:38.714Z,39.22
2022-12-09T10:27:25.753Z,46.17
2022-12-09T10:30:08.287Z,46.25
2022-12-09T10:32:38.382Z,42.40
2022-12-09T10:35:25.839Z,46.35
2022-12-09T10:37:55.890Z,43.33
2022-12-09T10:40:42.294Z,50.13
2022-12-09T10:43:36.293Z,44.58
2022-12-09T10:46:21.887Z,45.60
2022-12-09T10:48:50.543Z,43.50
2022-12-09T10:51:27.253Z,51.65
2022-12-09T10:56:30.822Z,52.58
2022-12-09T10:59:13.682Z,51.25
2022-12-09T11:01:51.739Z,57.25
2022-12-09T11:04:27.242Z,193.90
2022-12-09T11:07:00.223Z,83.82
2022-12-09T11:09:32.195Z,79.85
2022-12-09T11:12:01.588Z,82.40
2022-12-09T11:14:59.858Z,47.58
2022-12-09T11:17:34.053Z,127.78
2022-12-09T11:20:23.451Z,52.47
2022-12-09T11:23:05.383Z,60.92
2022-12-09T11:25:37.732Z,54.85
2022-12-09T11:28:37.112Z,52.20
2022-12-09T11:31:29.348Z,58.28
2022-12-09T11:34:04.866Z,70.50
2022-12-09T11:36:44.110Z,62.60
2022-12-09T11:39:37.750Z,62.90
2022-12-09T11:42:32.225Z,77.88
2022-12-09T11:45:05.668Z,62.53
2022-12-09T11:50:31.718Z,62.42
2022-12-09T11:53:11.418Z,63.25
2022-12-09T11:55:46.166Z,80.72
2022-12-09T11:58:27.524Z,93.07
2022-12-09T12:00:58.393Z,65.00
2022-12-09T12:03:34.632Z,64.07
2022-12-09T12:06:06.562Z,85.53
2022-12-09T12:08:49.753Z,60.58
2022-12-09T12:11:21.176Z,123.32
2022-12-09T12:14:01.189Z,77.82
2022-12-09T12:16:44.143Z,145.25
2022-12-09T12:19:32.393Z,79.60
2022-12-09T12:22:18.154Z,66.25
2022-12-09T12:25:05.312Z,63.95
2022-12-09T12:27:54.641Z,69.72
2022-12-09T12:30:27.313Z,72.75
2022-12-09T12:36:19.362Z,91.50
2022-12-09T12:39:17.033Z,71.45
2022-12-09T12:41:59.662Z,65.82
2022-12-09T12:45:08.470Z,55.17
2022-12-09T12:47:44.625Z,59.15
2022-12-09T12:50:20.393Z,50.88
2022-12-09T12:53:05.644Z,55.70
2022-12-09T12:55:48.926Z,55.03
2022-12-09T12:58:29.653Z,55.75
2022-12-09T13:01:32.358Z,58.85
2022-12-09T13:04:05.619Z,52.85
2022-12-09T13:06:36.040Z,53.70
2022-12-09T13:09:11.631Z,46.60
2022-12-09T13:11:50.943Z,48.28
2022-12-09T13:14:31.991Z,51.22
2022-12-09T13:17:01.784Z,46.55
2022-12-09T13:19:49.698Z,49.50
2022-12-09T13:22:25.803Z,49.95
2022-12-09T13:25:14.658Z,51.75
2022-12-09T13:27:51.166Z,50.58
2022-12-09T13:30:22.310Z,51.58
2022-12-09T13:33:12.833Z,55.67
2022-12-09T13:36:04.089Z,62.10
2022-12-09T13:38:42.729Z,63.90
2022-12-09T13:41:29.017Z,54.78
2022-12-09T13:44:05.266Z,61.05
2022-12-09T13:46:33.708Z,56.92
2022-12-09T13:49:19.804Z,53.47
2022-12-09T13:51:52.800Z,54.30
2022-12-09T13:54:27.090Z,80.53
2022-12-09T13:57:25.245Z,57.83
2022-12-09T14:00:18.525Z,68.53
2022-12-09T14:02:56.672Z,66.72
2022-12-09T14:05:27.908Z,57.17
2022-12-09T14:08:03.690Z,53.50
2022-12-09T14:10:53.097Z,50.78
2022-12-09T14:13:28.415Z,45.72
2022-12-09T14:16:28.772Z,45.78
2022-12-09T14:18:57.179Z,42.88
2022-12-09T14:21:29.023Z,43.03
2022-12-09T14:24:08.978Z,42.72
2022-12-09T14:26:45.060Z,42.63
2022-12-09T14:29:32.506Z,43.05
2022-12-09T14:32:04.598Z,45.70
2022-12-09T14:34:38.256Z,44.42
2022-12-09T14:37:19.617Z,49.85
2022-12-09T14:39:54.945Z,115.20
2022-12-09T14:42:36.365Z,47.67
2022-12-09T14:45:34.532Z,49.33
2022-12-09T14:48:08.861Z,45.38
2022-12-09T14:50:38.695Z,46.63
2022-12-09T14:53:21.036Z,49.10
2022-12-09T14:55:49.771Z,47.28
2022-12-09T14:58:22.294Z,50.42
2022-12-09T15:01:02.648Z,51.63
2022-12-09T15:03:34.290Z,48.50
2022-12-09T15:06:11.134Z,49.75
2022-12-09T15:08:41.463Z,55.00
2022-12-09T15:11:15.188Z,58.03
2022-12-09T15:13:46.577Z,63.83
2022-12-09T15:16:18.310Z,49.95
2022-12-09T15:18:47.086Z,50.70
2022-12-09T15:21:31.953Z,53.42
2022-12-09T15:24:00.997Z,55.30
2022-12-09T15:26:33.737Z,57.92
2022-12-09T15:29:05.131Z,54.13
2022-12-09T15:31:34.394Z,54.85
2022-12-09T15:34:14.256Z,60.53
2022-12-09T15:37:03.651Z,60.38
2022-12-09T15:39:42.955Z,56.58
2022-12-09T15:42:14.895Z,55.47
2022-12-09T15:44:56.374Z,62.80
2022-12-09T15:47:33.050Z,57.13
2022-12-09T15:50:18.064Z,59.90
2022-12-09T15:52:51.208Z,82.70
2022-12-09T15:55:24.746Z,70.50
2022-12-09T15:57:56.393Z,78.97
2022-12-09T16:00:24.285Z,54.20
2022-12-09T16:02:52.788Z,52.95
2022-12-09T16:05:25.790Z,51.22
2022-12-09T16:07:59.329Z,50.90
2022-12-09T16:10:29.146Z,51.77
2022-12-09T16:13:12.230Z,49.63
2022-12-09T16:15:52.594Z,47.25
2022-12-09T16:18:23.271Z,46.58
2022-12-09T16:21:20.344Z,43.95
2022-12-09T16:23:52.821Z,45.22
2022-12-09T16:26:31.079Z,38.97
2022-12-09T16:29:14.842Z,38.58
2022-12-09T16:31:49.414Z,44.60
2022-12-09T16:34:23.999Z,43.95
2022-12-09T16:36:56.121Z,38.53
2022-12-09T16:39:23.734Z,42.22
2022-12-09T16:41:51.464Z,51.60
2022-12-09T16:44:20.886Z,43.00
2022-12-09T16:46:48.829Z,38.60
2022-12-09T16:49:16.488Z,38.75
2022-12-09T16:51:44.633Z,50.40
2022-12-09T16:54:20.263Z,39.63
2022-12-09T16:56:49.067Z,35.58
2022-12-09T16:59:16.775Z,36.25
2022-12-09T17:01:44.657Z,41.15
2022-12-09T17:04:16.996Z,33.28
2022-12-09T17:06:45.307Z,34.22
2022-12-09T17:09:13.500Z,34.63
2022-12-09T17:11:45.554Z,36.30
2022-12-09T17:14:17.962Z,40.85
2022-12-09T17:16:45.843Z,56.33
2022-12-09T17:19:13.991Z,70.75
2022-12-09T17:21:42.017Z,36.50
2022-12-09T17:24:11.630Z,30.67
2022-12-09T17:26:39.747Z,27.40
2022-12-09T17:29:07.414Z,38.25
2022-12-09T17:31:35.351Z,31.67
2022-12-09T17:34:03.168Z,26.92
2022-12-09T17:36:30.856Z,27.92
2022-12-09T17:39:02.915Z,25.92
2022-12-09T17:41:31.067Z,26.98
2022-12-09T17:44:00.842Z,27.98
2022-12-09T17:46:28.730Z,28.27
2022-12-09T17:48:59.525Z,30.60
2022-12-09T17:51:33.912Z,30.10
2022-12-09T17:54:04.350Z,32.72
2022-12-09T17:56:31.967Z,81.45
2022-12-09T17:59:09.186Z,34.58
2022-12-09T18:01:38.280Z,25.92
2022-12-09T18:04:09.688Z,27.23
2022-12-09T18:06:43.213Z,30.90
2022-12-09T18:09:18.761Z,30.15
2022-12-09T18:11:47.307Z,21.20
2022-12-09T18:14:16.189Z,21.70
2022-12-09T18:16:46.685Z,79.88
2022-12-09T18:19:16.565Z,51.00
2022-12-09T18:21:45.076Z,17.60
2022-12-09T18:24:13.295Z,15.73
2022-12-09T18:26:42.184Z,19.08
2022-12-09T18:29:11.902Z,16.17
2022-12-09T18:31:40.576Z,16.10
2022-12-09T18:34:08.060Z,19.30
2022-12-09T18:36:35.604Z,28.90
2022-12-09T18:39:05.007Z,32.75
2022-12-09T18:41:33.548Z,27.02
2022-12-09T18:44:04.033Z,41.63
2022-12-09T18:46:36.436Z,71.97
2022-12-09T18:49:11.689Z,27.55
2022-12-09T18:51:40.953Z,35.28
2022-12-09T18:54:08.899Z,42.72
2022-12-09T18:56:36.982Z,70.18
2022-12-09T18:59:07.153Z,21.25
2022-12-09T19:01:41.238Z,24.00
2022-12-09T19:04:14.981Z,35.28
2022-12-09T19:06:44.788Z,24.20
2022-12-09T19:09:16.310Z,18.75
2022-12-09T19:11:46.168Z,23.92
2022-12-09T19:14:15.724Z,25.88
2022-12-09T19:16:44.682Z,21.33
2022-12-09T19:19:15.061Z,22.23
2022-12-09T19:21:43.652Z,31.02
2022-12-09T19:24:17.728Z,26.55
2022-12-09T19:26:45.727Z,25.45
2022-12-09T19:29:14.460Z,44.42
2022-12-09T19:31:45.482Z,29.35
2022-12-09T19:34:19.535Z,33.50
2022-12-09T19:36:49.149Z,33.47
2022-12-09T19:39:19.006Z,26.73
2022-12-09T19:41:47.511Z,21.58
2022-12-09T19:44:37.162Z,24.40
2022-12-09T19:47:06.080Z,22.38
2022-12-09T19:49:36.757Z,25.42
2022-12-09T19:52:05.427Z,22.88
2022-12-09T19:54:33.041Z,25.73
2022-12-09T19:57:01.348Z,24.08
2022-12-09T19:59:29.259Z,20.35
2022-12-09T20:01:57.115Z,16.50
2022-12-09T20:07:13.548Z,21.67
2022-12-09T20:09:41.933Z,16.45
2022-12-09T20:12:09.659Z,21.30
2022-12-09T20:14:38.874Z,32.75
2022-12-09T20:17:06.719Z,21.77
2022-12-09T20:19:36.723Z,20.00
2022-12-09T20:22:04.594Z,19.88
2022-12-09T20:24:32.519Z,21.45
2022-12-09T20:27:00.752Z,20.73
2022-12-09T20:29:33.873Z,19.00
2022-12-09T20:32:03.411Z,17.98
2022-12-09T20:34:32.452Z,14.02
2022-12-09T20:37:00.695Z,13.77
2022-12-09T20:39:28.665Z,14.13
2022-12-09T20:41:56.577Z,14.25
2022-12-09T20:44:24.311Z,16.85
2022-12-09T20:46:53.418Z,15.38
2022-12-09T20:49:26.376Z,18.90
2022-12-09T20:51:55.142Z,16.88
2022-12-09T20:54:23.141Z,18.80
2022-12-09T20:56:51.073Z,16.27
2022-12-09T20:59:18.959Z,18.17
2022-12-09T21:01:47.211Z,20.00
2022-12-09T21:04:15.685Z,17.65
2022-12-09T21:06:43.802Z,18.75
2022-12-09T21:09:17.500Z,16.63
2022-12-09T21:11:46.502Z,19.67
2022-12-09T21:14:18.150Z,17.45
2022-12-09T21:16:47.236Z,23.17
2022-12-09T21:19:16.679Z,21.67
2022-12-09T21:21:46.941Z,25.48
2022-12-09T21:24:16.124Z,28.40
2022-12-09T21:26:47.091Z,36.47
2022-12-09T21:29:15.417Z,33.25
2022-12-09T21:31:44.335Z,31.92
2022-12-09T21:34:11.923Z,33.08
2022-12-09T21:36:42.857Z,38.28
2022-12-09T21:39:13.061Z,35.33
2022-12-09T21:41:42.397Z,33.17
2022-12-09T21:44:15.098Z,40.35
2022-12-09T21:46:46.185Z,38.00
2022-12-09T21:49:14.794Z,39.45
2022-12-09T21:51:43.458Z,39.28
2022-12-09T21:54:11.489Z,37.40
2022-12-09T21:56:39.071Z,41.38
2022-12-09T21:59:07.473Z,35.47
2022-12-09T22:01:41.410Z,37.28
2022-12-09T22:04:13.583Z,39.17
2022-12-09T22:06:41.172Z,40.17
2022-12-09T22:09:09.074Z,37.60
2022-12-09T22:11:38.430Z,38.90
2022-12-09T22:14:08.043Z,44.80
2022-12-09T22:16:39.022Z,37.55
2022-12-09T22:19:08.469Z,36.28
2022-12-09T22:21:36.933Z,37.67
2022-12-09T22:24:06.819Z,36.95
2022-12-09T22:26:34.359Z,42.90
2022-12-09T22:29:03.991Z,39.70
2022-12-09T22:31:35.261Z,39.65
2022-12-09T22:34:06.070Z,36.22
2022-12-09T22:36:34.691Z,40.72
2022-12-09T22:39:02.647Z,40.13
2022-12-09T22:41:30.116Z,42.50
2022-12-09T22:43:58.651Z,47.10
2022-12-09T22:46:29.001Z,41.00
2022-12-09T22:48:59.759Z,37.60
2022-12-09T22:51:30.396Z,43.78
2022-12-09T22:53:59.393Z,34.03
2022-12-09T22:56:27.307Z,37.05
2022-12-09T22:58:55.058Z,37.55
2022-12-09T23:01:29.065Z,43.90
2022-12-09T23:03:58.709Z,39.03
2022-12-09T23:06:27.922Z,47.67
2022-12-09T23:08:57.763Z,45.28
2022-12-09T23:11:27.613Z,47.72
2022-12-09T23:13:55.748Z,44.83
2022-12-09T23:16:25.073Z,46.00
2022-12-09T23:18:54.819Z,58.53
2022-12-09T23:21:28.089Z,75.68
2022-12-09T23:23:58.975Z,72.40
2022-12-09T23:26:28.145Z,62.15
2022-12-09T23:28:57.885Z,65.93
2022-12-09T23:31:29.785Z,70.53
2022-12-09T23:33:58.226Z,82.53
2022-12-09T23:36:30.982Z,54.38
2022-12-09T23:39:00.088Z,51.88
2022-12-09T23:41:28.025Z,56.20
2022-12-09T23:43:55.890Z,44.45
2022-12-09T23:46:26.195Z,49.53
2022-12-09T23:48:55.691Z,46.20
2022-12-09T23:51:28.617Z,43.13
2022-12-09T23:54:05.077Z,44.17
2022-12-09T23:56:36.662Z,51.50
2022-12-09T23:59:07.038Z,47.92
